createdAt,value
2023-04-15T00:00:31.834Z,9.11
2023-04-15T00:03:02.550Z,9.00
2023-04-15T00:05:33.407Z,8.95
2023-04-15T00:08:06.679Z,8.90
2023-04-15T00:10:36.673Z,8.99
2023-04-15T00:13:06.604Z,8.86
2023-04-15T00:15:37.393Z,8.87
2023-04-15T00:18:07.560Z,8.83
2023-04-15T00:20:37.891Z,8.79
2023-04-15T00:23:10.464Z,8.82
2023-04-15T00:25:40.403Z,8.54
2023-04-15T00:28:10.317Z,8.57
2023-04-15T00:30:40.373Z,8.65
2023-04-15T00:33:10.302Z,8.69
2023-04-15T00:35:40.731Z,8.69
2023-04-15T00:38:13.348Z,8.65
2023-04-15T00:40:45.620Z,8.66
2023-04-15T00:43:16.594Z,8.67
2023-04-15T00:45:47.658Z,8.70
2023-04-15T00:48:18.446Z,8.67
2023-04-15T00:50:48.573Z,8.61
2023-04-15T00:53:21.166Z,8.73
2023-04-15T00:55:51.536Z,8.75
2023-04-15T00:58:21.992Z,8.69
2023-04-15T01:00:54.462Z,8.67
2023-04-15T01:03:24.619Z,8.74
2023-04-15T01:05:58.481Z,8.79
2023-04-15T01:08:33.477Z,8.80
2023-04-15T01:11:08.588Z,8.72
2023-04-15T01:13:39.543Z,8.76
2023-04-15T01:16:14.826Z,8.79
2023-04-15T01:18:48.161Z,8.86
2023-04-15T01:21:18.302Z,8.77
2023-04-15T01:23:56.137Z,8.79
2023-04-15T01:26:29.096Z,8.67
2023-04-15T01:28:59.439Z,8.66
2023-04-15T01:31:29.645Z,8.59
2023-04-15T01:34:01.030Z,8.53
2023-04-15T01:36:49.822Z,8.56
2023-04-15T01:39:19.819Z,8.48
2023-04-15T01:41:53.337Z,8.50
2023-04-15T01:44:24.497Z,8.46
2023-04-15T01:46:55.713Z,8.49
2023-04-15T01:49:27.780Z,8.59
2023-04-15T01:51:58.900Z,8.49
2023-04-15T01:54:30.210Z,8.46
2023-04-15T01:57:04.057Z,8.38
2023-04-15T01:59:35.263Z,8.46
2023-04-15T02:02:06.476Z,8.33
2023-04-15T02:04:37.751Z,8.33
2023-04-15T02:07:08.873Z,8.31
2023-04-15T02:09:40.089Z,8.28
2023-04-15T02:12:15.527Z,8.22
2023-04-15T02:14:52.621Z,8.14
2023-04-15T02:17:23.759Z,8.18
2023-04-15T02:19:55.361Z,8.11
2023-04-15T02:22:26.620Z,8.12
2023-04-15T02:24:57.814Z,8.12
2023-04-15T02:27:32.964Z,7.99
2023-04-15T02:30:04.188Z,7.94
2023-04-15T02:32:35.491Z,7.82
2023-04-15T02:35:06.944Z,7.70
2023-04-15T02:37:43.543Z,7.74
2023-04-15T02:40:16.161Z,7.54
2023-04-15T02:42:49.884Z,7.52
2023-04-15T02:45:24.325Z,7.63
2023-04-15T02:47:56.041Z,7.75
2023-04-15T02:50:27.782Z,7.74
2023-04-15T02:52:59.012Z,7.63
2023-04-15T02:55:30.372Z,7.38
2023-04-15T02:58:04.227Z,7.51
2023-04-15T03:00:35.545Z,7.58
2023-04-15T03:03:09.273Z,7.60
2023-04-15T03:05:41.706Z,7.53
2023-04-15T03:08:13.181Z,7.54
2023-04-15T03:10:44.359Z,7.56
2023-04-15T03:13:18.097Z,7.60
2023-04-15T03:15:50.389Z,7.43
2023-04-15T03:18:21.689Z,7.49
2023-04-15T03:20:52.917Z,7.51
2023-04-15T03:23:24.253Z,7.49
2023-04-15T03:25:57.341Z,7.30
2023-04-15T03:28:33.935Z,7.32
2023-04-15T03:31:05.979Z,7.30
2023-04-15T03:33:37.151Z,7.13
2023-04-15T03:36:08.894Z,7.23
2023-04-15T03:38:40.057Z,7.26
2023-04-15T03:41:11.295Z,7.20
2023-04-15T03:43:45.020Z,7.09
2023-04-15T03:46:20.625Z,7.10
2023-04-15T03:48:52.409Z,7.10
2023-04-15T03:51:23.857Z,7.03
2023-04-15T03:53:55.243Z,7.00
2023-04-15T03:56:26.514Z,7.09
2023-04-15T03:59:00.435Z,7.11
2023-04-15T04:01:32.622Z,7.11
2023-04-15T04:04:04.439Z,7.11
2023-04-15T04:06:36.394Z,6.97
2023-04-15T04:09:07.785Z,7.02
2023-04-15T04:11:39.544Z,6.97
2023-04-15T04:14:13.229Z,7.03
2023-04-15T04:16:44.950Z,6.95
2023-04-15T04:19:19.722Z,6.94
2023-04-15T04:21:50.885Z,6.97
2023-04-15T04:24:22.126Z,6.88
2023-04-15T04:26:53.320Z,6.81
2023-04-15T04:29:27.176Z,6.83
2023-04-15T04:31:58.396Z,6.80
2023-04-15T04:34:29.629Z,6.85
2023-04-15T04:37:00.929Z,6.84
2023-04-15T04:39:32.918Z,6.87
2023-04-15T04:42:04.089Z,6.80
2023-04-15T04:44:38.185Z,6.85
2023-04-15T04:47:09.416Z,6.92
2023-04-15T04:49:41.290Z,6.99
2023-04-15T04:52:13.305Z,7.08
2023-04-15T04:54:44.462Z,6.98
2023-04-15T04:57:15.780Z,7.04
2023-04-15T04:59:49.544Z,7.05
2023-04-15T05:02:20.815Z,7.12
2023-04-15T05:04:54.534Z,7.14
2023-04-15T05:07:25.977Z,7.13
2023-04-15T05:09:57.293Z,7.12
2023-04-15T05:12:28.495Z,7.13
2023-04-15T05:15:02.245Z,7.17
2023-04-15T05:17:35.522Z,7.15
2023-04-15T05:20:07.599Z,7.31
2023-04-15T05:22:38.808Z,7.25
2023-04-15T05:25:10.988Z,7.09
2023-04-15T05:27:42.354Z,7.21
2023-04-15T05:30:16.353Z,7.27
2023-04-15T05:32:47.606Z,7.32
2023-04-15T05:35:19.278Z,7.36
2023-04-15T05:37:50.473Z,7.36
2023-04-15T05:40:21.699Z,7.36
2023-04-15T05:42:52.939Z,7.37
2023-04-15T05:45:27.456Z,7.46
2023-04-15T05:47:58.705Z,7.51
2023-04-15T05:50:30.012Z,7.41
2023-04-15T05:53:01.302Z,7.38
2023-04-15T05:55:33.041Z,7.48
2023-04-15T05:58:04.328Z,7.44
2023-04-15T06:00:38.147Z,7.33
2023-04-15T06:03:09.476Z,7.33
2023-04-15T06:05:45.153Z,7.36
2023-04-15T06:08:16.345Z,7.30
2023-04-15T06:10:47.516Z,7.46
2023-04-15T06:13:19.036Z,7.43
2023-04-15T06:15:52.835Z,7.35
2023-04-15T06:18:24.164Z,7.54
2023-04-15T06:20:55.449Z,7.66
2023-04-15T06:23:27.625Z,7.60
2023-04-15T06:25:59.282Z,7.59
2023-04-15T06:28:30.711Z,7.73
2023-04-15T06:31:04.660Z,7.57
2023-04-15T06:33:35.939Z,7.83
2023-04-15T06:36:07.242Z,8.03
2023-04-15T06:38:38.416Z,8.06
2023-04-15T06:41:09.624Z,8.23
2023-04-15T06:43:41.249Z,8.35
2023-04-15T06:46:33.911Z,8.44
2023-04-15T06:49:05.615Z,8.57
2023-04-15T06:51:37.807Z,8.67
2023-04-15T06:54:09.007Z,8.67
2023-04-15T06:56:40.148Z,8.77
2023-04-15T06:59:11.486Z,8.80
2023-04-15T07:01:45.415Z,8.63
2023-04-15T07:04:16.720Z,8.91
2023-04-15T07:06:47.924Z,9.10
2023-04-15T07:09:19.166Z,9.02
2023-04-15T07:11:50.484Z,9.10
2023-04-15T07:14:21.785Z,9.10
2023-04-15T07:16:55.952Z,9.21
2023-04-15T07:19:27.304Z,9.14
2023-04-15T07:21:58.570Z,9.13
2023-04-15T07:24:30.186Z,9.27
2023-04-15T07:27:02.298Z,9.36
2023-04-15T07:29:33.559Z,9.44
2023-04-15T07:32:07.987Z,9.50
2023-04-15T07:34:39.392Z,9.47
2023-04-15T07:37:10.598Z,9.49
2023-04-15T07:39:41.980Z,9.63
2023-04-15T07:42:13.429Z,9.67
2023-04-15T07:44:44.685Z,9.80
2023-04-15T07:47:18.656Z,9.74
2023-04-15T07:49:51.613Z,9.90
2023-04-15T07:52:22.764Z,9.99
2023-04-15T07:54:53.884Z,10.12
2023-04-15T07:57:25.015Z,10.16
2023-04-15T07:59:56.174Z,10.33
2023-04-15T08:02:30.135Z,10.45
2023-04-15T08:05:03.173Z,10.46
2023-04-15T08:07:34.627Z,10.68
2023-04-15T08:10:05.994Z,10.73
2023-04-15T08:12:37.251Z,10.94
2023-04-15T08:15:09.784Z,11.05
2023-04-15T08:17:43.809Z,10.98
2023-04-15T08:20:15.503Z,11.14
2023-04-15T08:22:48.038Z,11.33
2023-04-15T08:25:19.931Z,11.47
2023-04-15T08:27:51.209Z,11.64
2023-04-15T08:30:22.314Z,11.86
2023-04-15T08:32:56.157Z,12.04
2023-04-15T08:35:27.554Z,12.15
2023-04-15T08:37:58.777Z,12.40
2023-04-15T08:40:41.847Z,12.34
2023-04-15T08:43:16.001Z,12.46
2023-04-15T08:45:48.896Z,12.24
2023-04-15T08:48:24.845Z,12.11
2023-04-15T08:50:56.859Z,12.33
2023-04-15T08:53:29.387Z,12.25
2023-04-15T08:56:02.923Z,12.72
2023-04-15T08:58:34.632Z,12.58
2023-04-15T09:01:06.063Z,12.30
2023-04-15T09:03:40.914Z,12.45
2023-04-15T09:06:12.725Z,12.55
2023-04-15T09:08:44.216Z,12.62
2023-04-15T09:11:15.732Z,12.73
2023-04-15T09:13:47.404Z,12.77
2023-04-15T09:16:19.274Z,12.78
2023-04-15T09:18:57.143Z,12.98
2023-04-15T09:21:29.735Z,12.95
2023-04-15T09:24:04.114Z,13.51
2023-04-15T09:26:37.796Z,13.58
2023-04-15T09:29:10.326Z,13.51
2023-04-15T09:31:42.740Z,13.52
2023-04-15T09:34:16.782Z,13.72
2023-04-15T09:36:59.123Z,13.91
2023-04-15T09:39:30.352Z,14.14
2023-04-15T09:42:09.967Z,13.87
2023-04-15T09:44:41.215Z,14.00
2023-04-15T09:47:12.552Z,14.19
2023-04-15T09:49:59.266Z,13.97
2023-04-15T09:52:31.038Z,14.52
2023-04-15T09:55:04.623Z,14.66
2023-04-15T09:57:38.568Z,14.82
2023-04-15T10:00:12.620Z,14.91
2023-04-15T10:02:45.146Z,14.64
2023-04-15T10:05:19.626Z,14.77
2023-04-15T10:07:53.022Z,14.34
2023-04-15T10:10:24.582Z,14.67
2023-04-15T10:12:58.121Z,14.41
2023-04-15T10:15:32.721Z,14.71
2023-04-15T10:18:05.037Z,14.97
2023-04-15T10:20:40.987Z,15.35
2023-04-15T10:23:13.429Z,15.60
2023-04-15T10:25:46.095Z,15.54
2023-04-15T10:28:19.215Z,15.35
2023-04-15T10:30:52.297Z,15.29
2023-04-15T10:33:26.750Z,15.28
2023-04-15T10:36:01.674Z,15.79
2023-04-15T10:38:43.436Z,15.46
2023-04-15T10:41:21.269Z,15.02
2023-04-15T10:43:54.922Z,15.64
2023-04-15T10:46:29.640Z,15.79
2023-04-15T10:49:01.616Z,15.83
2023-04-15T10:51:36.153Z,16.31
2023-04-15T10:54:12.883Z,16.19
2023-04-15T10:56:45.545Z,15.98
2023-04-15T10:59:19.967Z,16.44
2023-04-15T11:02:00.465Z,16.76
2023-04-15T11:04:57.728Z,16.74
2023-04-15T11:07:52.781Z,16.59
2023-04-15T11:10:57.712Z,16.60
2023-04-15T11:13:33.304Z,16.61
2023-04-15T11:16:06.067Z,16.82
2023-04-15T11:18:40.673Z,16.47
2023-04-15T11:21:12.320Z,16.52
2023-04-15T11:23:47.563Z,17.07
2023-04-15T11:26:18.788Z,17.25
2023-04-15T11:28:50.115Z,16.47
2023-04-15T11:31:24.030Z,16.86
2023-04-15T11:33:59.884Z,16.79
2023-04-15T11:36:33.273Z,16.83
2023-04-15T11:39:10.500Z,17.18
2023-04-15T11:41:43.176Z,17.60
2023-04-15T11:44:20.629Z,17.72
2023-04-15T11:46:51.892Z,17.70
2023-04-15T11:49:30.464Z,18.45
2023-04-15T11:52:00.720Z,18.82
2023-04-15T11:54:33.347Z,17.86
2023-04-15T11:57:03.341Z,18.08
2023-04-15T11:59:46.170Z,18.27
2023-04-15T12:02:16.822Z,18.64
2023-04-15T12:04:47.090Z,18.47
2023-04-15T12:07:17.092Z,19.22
2023-04-15T12:09:58.312Z,19.98
2023-04-15T12:12:31.027Z,21.14
2023-04-15T12:15:01.072Z,21.52
2023-04-15T12:17:31.766Z,20.71
2023-04-15T12:20:27.811Z,21.04
2023-04-15T12:23:08.818Z,22.66
2023-04-15T12:25:41.724Z,22.18
2023-04-15T12:28:14.253Z,22.36
2023-04-15T12:30:52.858Z,21.80
2023-04-15T12:33:22.870Z,22.05
2023-04-15T12:35:52.831Z,23.43
2023-04-15T12:38:22.757Z,21.15
2023-04-15T12:40:56.652Z,21.82
2023-04-15T12:43:27.433Z,21.91
2023-04-15T12:48:27.364Z,20.92
2023-04-15T12:50:57.390Z,21.66
2023-04-15T12:53:27.772Z,21.32
2023-04-15T12:56:00.523Z,22.20
2023-04-15T12:58:30.476Z,20.56
2023-04-15T13:01:00.510Z,20.51
2023-04-15T13:03:30.668Z,20.38
2023-04-15T13:06:02.406Z,19.64
2023-04-15T13:08:32.363Z,19.47
2023-04-15T13:11:05.061Z,19.08
2023-04-15T13:13:35.058Z,19.15
2023-04-15T13:16:12.635Z,19.31
2023-04-15T13:18:52.476Z,18.98
2023-04-15T13:21:22.992Z,18.85
2023-04-15T13:23:53.441Z,18.14
2023-04-15T13:26:28.374Z,18.01
2023-04-15T13:28:58.427Z,17.78
2023-04-15T13:31:28.458Z,18.01
2023-04-15T13:33:59.728Z,17.85
2023-04-15T13:36:30.206Z,17.76
2023-04-15T13:39:00.235Z,17.36
2023-04-15T13:41:32.712Z,17.17
2023-04-15T13:44:02.940Z,17.28
2023-04-15T13:46:33.074Z,17.38
2023-04-15T13:49:03.216Z,17.22
2023-04-15T13:51:33.191Z,17.15
2023-04-15T13:54:03.377Z,17.19
2023-04-15T13:56:36.272Z,17.07
2023-04-15T13:59:06.925Z,16.98
2023-04-15T14:01:37.653Z,16.88
2023-04-15T14:04:08.127Z,16.62
2023-04-15T14:06:38.348Z,16.13
2023-04-15T14:09:08.397Z,16.37
2023-04-15T14:11:41.302Z,15.94
2023-04-15T14:14:11.264Z,15.78
2023-04-15T14:16:42.383Z,15.56
2023-04-15T14:19:12.454Z,15.53
2023-04-15T14:21:42.465Z,15.54
2023-04-15T14:24:12.630Z,15.54
2023-04-15T14:26:46.727Z,15.37
2023-04-15T14:29:16.894Z,15.22
2023-04-15T14:32:04.504Z,15.42
2023-04-15T14:34:36.933Z,15.29
2023-04-15T14:37:07.117Z,15.44
2023-04-15T14:39:37.090Z,15.46
2023-04-15T14:42:09.604Z,15.46
2023-04-15T14:44:39.665Z,15.24
2023-04-15T14:47:09.722Z,15.03
2023-04-15T14:49:39.777Z,15.11
2023-04-15T14:52:09.764Z,15.17
2023-04-15T14:54:39.751Z,15.23
2023-04-15T14:57:12.397Z,15.20
2023-04-15T14:59:42.316Z,15.31
2023-04-15T15:02:14.687Z,15.29
2023-04-15T15:04:47.307Z,14.94
2023-04-15T15:07:17.352Z,15.15
2023-04-15T15:09:47.318Z,15.16
2023-04-15T15:12:19.889Z,14.99
2023-04-15T15:14:49.853Z,15.12
2023-04-15T15:17:19.939Z,15.07
2023-04-15T15:19:50.058Z,14.92
2023-04-15T15:22:21.475Z,14.95
2023-04-15T15:24:51.774Z,14.99
2023-04-15T15:27:24.365Z,14.86
2023-04-15T15:29:54.421Z,15.02
2023-04-15T15:32:24.564Z,14.92
2023-04-15T15:34:54.643Z,15.02
2023-04-15T15:37:24.846Z,15.02
2023-04-15T15:39:56.369Z,15.02
2023-04-15T15:42:29.036Z,14.99
2023-04-15T15:44:59.288Z,14.93
2023-04-15T15:47:29.538Z,14.67
2023-04-15T15:49:59.684Z,14.65
2023-04-15T15:52:29.621Z,14.66
2023-04-15T15:54:59.565Z,14.63
2023-04-15T15:57:32.110Z,14.64
2023-04-15T16:05:10.863Z,14.31
2023-04-15T16:07:40.815Z,14.27
2023-04-15T16:10:12.716Z,14.14
2023-04-15T16:12:45.379Z,13.79
2023-04-15T16:15:15.727Z,13.89
2023-04-15T16:17:46.079Z,13.59
2023-04-15T16:20:16.154Z,13.64
2023-04-15T16:22:46.596Z,13.44
2023-04-15T16:25:16.514Z,13.47
2023-04-15T16:28:00.830Z,13.32
2023-04-15T16:30:33.295Z,13.34
2023-04-15T16:33:03.387Z,13.22
2023-04-15T16:35:34.773Z,13.40
2023-04-15T16:38:05.010Z,13.34
2023-04-15T16:40:35.990Z,13.30
2023-04-15T16:43:11.371Z,13.05
2023-04-15T16:45:41.828Z,13.24
2023-04-15T16:48:11.820Z,12.94
2023-04-15T16:50:41.849Z,13.12
2023-04-15T16:53:11.894Z,12.96
2023-04-15T16:55:42.781Z,12.74
2023-04-15T16:58:15.338Z,12.46
2023-04-15T17:00:45.491Z,12.79
2023-04-15T17:03:15.732Z,12.55
2023-04-15T17:05:46.451Z,12.55
2023-04-15T17:08:16.423Z,12.65
2023-04-15T17:10:46.472Z,12.52
2023-04-15T17:13:19.013Z,12.43
2023-04-15T17:15:49.084Z,12.39
2023-04-15T17:18:29.877Z,12.43
2023-04-15T17:21:11.129Z,12.29
2023-04-15T17:23:43.883Z,12.40
2023-04-15T17:26:14.255Z,12.03
2023-04-15T17:28:46.939Z,12.16
2023-04-15T17:31:22.785Z,12.28
2023-04-15T17:34:15.305Z,12.03
2023-04-15T17:36:46.106Z,12.18
2023-04-15T17:39:36.265Z,12.34
2023-04-15T17:42:26.539Z,12.18
2023-04-15T17:45:19.246Z,12.16
2023-04-15T17:48:09.358Z,12.06
2023-04-15T17:50:59.371Z,11.82
2023-04-15T17:53:49.324Z,11.66
2023-04-15T17:56:39.315Z,11.57
2023-04-15T17:59:29.307Z,11.50
2023-04-15T18:02:22.056Z,11.70
2023-04-15T18:05:12.536Z,11.53
2023-04-15T18:08:02.684Z,11.74
2023-04-15T18:10:52.741Z,11.56
2023-04-15T18:13:43.770Z,11.45
2023-04-15T18:16:34.563Z,11.51
2023-04-15T18:19:27.104Z,11.28
2023-04-15T18:21:57.139Z,11.18
2023-04-15T18:24:27.145Z,11.20
2023-04-15T18:26:57.305Z,11.08
2023-04-15T18:29:27.352Z,11.03
2023-04-15T18:34:32.890Z,10.95
2023-04-15T18:37:03.654Z,11.14
2023-04-15T18:39:33.854Z,11.11
2023-04-15T18:42:03.997Z,11.19
2023-04-15T18:44:34.223Z,11.05
2023-04-15T18:47:04.381Z,11.08
2023-04-15T18:49:37.556Z,11.21
2023-04-15T18:52:07.627Z,11.12
2023-04-15T18:54:37.708Z,11.18
2023-04-15T18:57:08.880Z,11.14
2023-04-15T18:59:38.989Z,11.05
2023-04-15T19:02:09.421Z,10.96
2023-04-15T19:04:42.118Z,11.08
2023-04-15T19:07:12.557Z,11.20
2023-04-15T19:09:42.724Z,11.13
2023-04-15T19:12:12.776Z,11.10
2023-04-15T19:14:42.796Z,11.23
2023-04-15T19:17:12.728Z,11.21
2023-04-15T19:19:45.323Z,11.11
2023-04-15T19:22:15.399Z,11.22
2023-04-15T19:24:46.159Z,11.29
2023-04-15T19:27:16.270Z,11.12
2023-04-15T19:29:46.348Z,11.10
2023-04-15T19:32:16.423Z,11.06
2023-04-15T19:34:49.131Z,10.82
2023-04-15T19:37:19.190Z,10.64
2023-04-15T19:39:49.332Z,11.12
2023-04-15T19:42:19.271Z,10.57
2023-04-15T19:44:49.217Z,10.88
2023-04-15T19:47:21.387Z,10.82
2023-04-15T19:49:54.103Z,10.88
2023-04-15T19:52:24.818Z,10.93
2023-04-15T19:54:54.787Z,11.04
2023-04-15T19:57:24.836Z,10.95
2023-04-15T19:59:54.781Z,10.89
2023-04-15T20:02:25.012Z,10.79
2023-04-15T20:04:57.741Z,10.87
2023-04-15T20:07:27.809Z,10.74
2023-04-15T20:09:57.910Z,10.97
2023-04-15T20:12:50.838Z,10.55
2023-04-15T20:15:18.766Z,10.30
2023-04-15T20:17:48.758Z,10.80
2023-04-15T20:20:22.064Z,10.85
2023-04-15T20:22:55.575Z,10.53
2023-04-15T20:25:25.950Z,10.64
2023-04-15T20:27:58.131Z,10.51
2023-04-15T20:30:29.422Z,10.26
2023-04-15T20:32:59.812Z,10.28
2023-04-15T20:35:32.591Z,10.61
2023-04-15T20:38:02.859Z,10.83
2023-04-15T20:40:34.018Z,10.81
2023-04-15T20:43:04.277Z,10.39
2023-04-15T20:45:34.442Z,10.45
2023-04-15T20:48:04.533Z,10.27
2023-04-15T20:50:37.178Z,10.45
2023-04-15T20:53:07.650Z,10.48
2023-04-15T20:55:40.114Z,10.26
2023-04-15T20:58:10.131Z,9.97
2023-04-15T21:00:41.613Z,9.93
2023-04-15T21:03:12.113Z,9.73
2023-04-15T21:05:44.850Z,10.18
2023-04-15T21:08:14.875Z,10.17
2023-04-15T21:10:44.898Z,10.42
2023-04-15T21:13:17.812Z,10.52
2023-04-15T21:15:51.876Z,10.55
2023-04-15T21:18:21.966Z,10.39
2023-04-15T21:21:02.006Z,10.27
2023-04-15T21:23:36.103Z,10.13
2023-04-15T21:26:06.392Z,9.89
2023-04-15T21:28:37.282Z,10.09
2023-04-15T21:31:07.455Z,10.12
2023-04-15T21:33:37.422Z,10.31
2023-04-15T21:36:10.236Z,10.04
2023-04-15T21:38:40.270Z,9.80
2023-04-15T21:41:10.464Z,10.00
2023-04-15T21:43:40.650Z,10.06
2023-04-15T21:46:22.817Z,9.84
2023-04-15T21:48:55.955Z,9.84
2023-04-15T21:51:28.711Z,10.01
2023-04-15T21:53:58.792Z,9.92
2023-04-15T21:56:29.214Z,9.65
2023-04-15T21:59:00.442Z,9.80
2023-04-15T22:01:30.716Z,10.16
2023-04-15T22:04:00.846Z,10.13
2023-04-15T22:06:33.535Z,9.94
2023-04-15T22:09:03.878Z,10.00
2023-04-15T22:11:33.954Z,10.09
2023-04-15T22:14:05.462Z,10.09
2023-04-15T22:16:35.632Z,9.91
2023-04-15T22:19:05.847Z,9.80
2023-04-15T22:21:38.644Z,10.05
2023-04-15T22:24:37.954Z,10.01
2023-04-15T22:26:59.484Z,10.15
2023-04-15T22:29:29.464Z,10.14
2023-04-15T22:31:59.445Z,10.29
2023-04-15T22:34:29.583Z,10.06
2023-04-15T22:37:02.214Z,10.05
2023-04-15T22:39:32.181Z,10.12
2023-04-15T22:42:02.238Z,10.14
2023-04-15T22:44:32.262Z,9.85
2023-04-15T22:47:02.289Z,10.04
2023-04-15T22:49:32.309Z,10.08
2023-04-15T22:52:04.899Z,10.10
2023-04-15T22:54:34.961Z,10.08
2023-04-15T22:57:05.182Z,9.93
2023-04-15T22:59:35.099Z,9.80
2023-04-15T23:02:05.118Z,9.99
2023-04-15T23:04:35.368Z,9.88
2023-04-15T23:07:08.093Z,9.98
2023-04-15T23:09:38.069Z,10.18
2023-04-15T23:12:08.129Z,9.88
2023-04-15T23:14:38.188Z,9.94
2023-04-15T23:17:08.245Z,9.94
2023-04-15T23:19:38.340Z,10.01
2023-04-15T23:22:12.315Z,10.13
2023-04-15T23:24:42.239Z,10.15
2023-04-15T23:27:12.227Z,9.91
2023-04-15T23:29:42.227Z,10.04
2023-04-15T23:32:12.208Z,9.97
2023-04-15T23:34:42.291Z,9.83
2023-04-15T23:37:14.791Z,9.78
2023-04-15T23:39:44.751Z,9.79
2023-04-15T23:42:14.822Z,9.90
2023-04-15T23:44:45.115Z,9.94
2023-04-15T23:47:15.121Z,9.97
2023-04-15T23:49:45.220Z,10.01
2023-04-15T23:52:17.848Z,9.95
2023-04-15T23:54:47.909Z,10.12
2023-04-15T23:57:18.901Z,9.71
2023-04-15T23:59:49.068Z,9.89
